Data for 11/06/2017

Time Sea-Level Adjusted Pressure Absolute Pressure Temperature Relative Humidity Dew Point   
(mb) (inHg) (mb) (inHg) (C) (F) (%) (C) (F)
00:05 1015 29.97 844 24.92 -8.9 15.9 87 -10.7 12.8
00:10 1015 29.97 844 24.92 -9 15.9 87 -10.7 12.8
00:15 1015 29.97 844 24.92 -9 15.8 87 -10.8 12.6
00:20 1015 29.97 844 24.92 -8.9 15.9 87 -10.7 12.7
00:25 1015 29.97 844 24.92 -8.9 15.9 87 -10.8 12.6
00:30 1015 29.97 844 24.92 -9 15.8 86 -10.9 12.4
00:35 1015 29.97 844 24.92 -9.1 15.6 87 -11 12.2
00:40 1015 29.97 845 24.95 -9.1 15.6 87 -11 12.3
00:45 1015 29.97 845 24.95 -9.1 15.6 86 -11.1 12.1
00:50 1016 30 845 24.95 -9.1 15.7 85 -11.1 12
00:55 1016 30 845 24.95 -9.1 15.6 85 -11.2 11.8
01:00 1016 30 845 24.95 -9.2 15.4 84 -11.4 11.5
01:05 1016 30 845 24.95 -9.6 14.7 86 -11.5 11.3
01:10 1016 30 845 24.95 -9.7 14.5 85 -11.7 10.9
01:15 1016 30 845 24.95 -9.8 14.3 86 -11.8 10.8
01:20 1016 30 845 24.95 -9.8 14.4 85 -11.9 10.6
01:25 1016 30 845 24.95 -9.8 14.3 85 -12 10.5
01:30 1016 30 845 24.95 -9.9 14.1 85 -12 10.4
01:35 1016 30 845 24.95 -10.1 13.8 86 -12 10.4
01:40 1016 30 845 24.95 -10.2 13.6 87 -12 10.4
01:45 1016 30 845 24.95 -10.3 13.5 87 -12 10.4
01:50 1016 30 845 24.95 -10.2 13.6 88 -11.9 10.5
01:55 1016 30 845 24.95 -10.2 13.6 87 -11.9 10.5
02:00 1016 30 845 24.95 -10.2 13.7 87 -11.9 10.6
02:05 1016 30 845 24.95 -10.2 13.7 87 -11.9 10.5
02:10 1016 30 845 24.95 -10.3 13.6 88 -11.9 10.5
02:15 1016 30 845 24.95 -10.3 13.4 88 -12 10.4
02:20 1016 30 845 24.95 -10.3 13.4 88 -11.9 10.5
02:25 1016 30 845 24.95 -10.3 13.5 88 -11.8 10.7
02:30 1016 30 845 24.95 -10.2 13.6 87 -11.9 10.5
02:35 1016 30 845 24.95 -10.2 13.6 87 -12.1 10.3
02:40 1016 30 845 24.95 -10.2 13.7 86 -12.1 10.2
02:45 1016 30 845 24.95 -10.2 13.7 86 -12.2 10.1
02:50 1016 30 845 24.95 -10.1 13.8 85 -12.2 10
02:55 1016 30 845 24.95 -10.2 13.7 85 -12.3 9.9
03:00 1016 30 846 24.98 -10.2 13.7 85 -12.3 9.9
03:05 1016 30 846 24.98 -10.3 13.6 84 -12.4 9.7
03:10 1016 30 846 24.98 -10.4 13.4 84 -12.5 9.5
03:15 1016 30 846 24.98 -10.4 13.2 84 -12.6 9.4
03:20 1016 30 846 24.98 -10.4 13.2 85 -12.5 9.5
03:25 1016 30 846 24.98 -10.4 13.3 85 -12.4 9.7
03:30 1016 30 846 24.98 -10.4 13.4 84 -12.5 9.4
03:35 1017 30.03 846 24.98 -10.6 13 84 -12.8 9
03:40 1017 30.03 846 24.98 -10.7 12.8 85 -12.8 9
03:45 1017 30.03 846 24.98 -10.7 12.7 85 -12.8 8.9
03:50 1017 30.03 846 24.98 -10.7 12.7 85 -12.8 8.9
03:55 1017 30.03 846 24.98 -10.8 12.6 85 -12.8 9
04:00 1017 30.03 846 24.98 -10.8 12.6 85 -12.8 9
04:05 1017 30.03 846 24.98 -10.8 12.6 85 -12.8 9
04:10 1017 30.03 846 24.98 -10.8 12.6 84 -12.9 8.8
04:15 1017 30.03 847 25.01 -10.8 12.5 84 -13 8.6
04:20 1017 30.03 847 25.01 -10.9 12.4 84 -13.1 8.4
04:25 1018 30.06 847 25.01 -11 12.2 83 -13.3 8.1
04:30 1018 30.06 847 25.01 -11.1 12.1 84 -13.3 8
04:35 1018 30.06 847 25.01 -11.1 12 84 -13.3 8
04:40 1018 30.06 847 25.01 -11.1 12 83 -13.4 7.9
04:45 1018 30.06 847 25.01 -11.1 12 83 -13.4 7.8
04:50 1018 30.06 847 25.01 -11.2 11.9 83 -13.5 7.7
04:55 1018 30.06 847 25.01 -11.2 11.8 83 -13.6 7.5
05:00 1018 30.06 847 25.01 -11.3 11.7 83 -13.5 7.6
05:05 1018 30.06 847 25.01 -11.2 11.8 83 -13.5 7.7
05:10 1018 30.06 847 25.01 -11.2 11.8 82 -13.7 7.4
05:15 1018 30.06 847 25.01 -11.4 11.5 83 -13.7 7.4
05:20 1018 30.06 847 25.01 -11.4 11.4 83 -13.8 7.1
05:25 1018 30.06 847 25.01 -11.5 11.4 83 -13.8 7.1
05:30 1018 30.06 847 25.01 -11.5 11.3 83 -13.8 7.1
05:35 1018 30.06 848 25.04 -11.5 11.3 84 -13.7 7.3
05:40 1019 30.09 848 25.04 -11.5 11.3 82 -14 6.9
05:45 1019 30.09 848 25.04 -11.7 11 83 -14 6.8
05:50 1019 30.09 848 25.04 -11.7 10.9 83 -14 6.8
05:55 1019 30.09 848 25.04 -11.8 10.8 82 -14.2 6.4
06:00 1019 30.09 848 25.04 -11.8 10.8 83 -14.1 6.6
06:05 1019 30.09 848 25.04 -11.8 10.8 83 -14.2 6.5
06:10 1019 30.09 848 25.04 -11.8 10.7 83 -14.2 6.4
06:15 1019 30.09 848 25.04 -11.9 10.6 83 -14.2 6.4
06:20 1019 30.09 848 25.04 -11.9 10.7 83 -14.2 6.5
06:25 1019 30.09 849 25.07 -11.8 10.8 83 -14.1 6.6
06:30 1019 30.09 849 25.07 -11.8 10.9 82 -14.2 6.4
06:35 1020 30.12 849 25.07 -11.8 10.7 82 -14.3 6.2
06:40 1020 30.12 849 25.07 -11.8 10.8 81 -14.4 6.1
06:45 1020 30.12 849 25.07 -11.7 11 82 -14.2 6.5
06:50 1020 30.12 849 25.07 -11.5 11.2 80 -14.3 6.3
06:55 1020 30.12 849 25.07 -11.5 11.3 80 -14.4 6.1
07:00 1020 30.12 849 25.07 -11.4 11.5 78 -14.5 5.9
07:05 1020 30.12 849 25.07 -11.7 10.9 80 -14.6 5.8
07:10 1020 30.12 849 25.07 -11.9 10.6 80 -14.6 5.6
07:15 1020 30.12 849 25.07 -11.5 11.4 80 -14.2 6.4
07:20 1020 30.12 849 25.07 -11.4 11.4 80 -14.2 6.5
07:25 1020 30.12 849 25.07 -11.9 10.5 82 -14.4 6.1
07:30 1020 30.12 849 25.07 -11.8 10.8 83 -14.2 6.5
07:35 1020 30.12 849 25.07 -11.8 10.8 83 -14.1 6.6
07:40 1020 30.12 849 25.07 -11.6 11.1 82 -14.1 6.5
07:45 1020 30.12 849 25.07 -11.4 11.5 80 -14.3 6.3
07:50 1020 30.12 850 25.1 -11.5 11.4 79 -14.5 5.9
07:55 1020 30.12 850 25.1 -11.5 11.4 80 -14.3 6.2
08:00 1020 30.12 850 25.1 -11.1 11.9 80 -14 6.8
08:05 1021 30.15 850 25.1 -10.4 13.2 76 -13.9 6.9
08:10 1021 30.15 850 25.1 -10.1 13.8 73 -14.1 6.7
08:15 1021 30.15 850 25.1 -10 14 74 -13.8 7.1
08:20 1021 30.15 850 25.1 -9.3 15.2 72 -13.4 7.9
08:25 1021 30.15 850 25.1 -8.6 16.6 67 -13.6 7.5
08:30 1021 30.15 850 25.1 -8.6 16.5 68 -13.5 7.6
08:35 1021 30.15 850 25.1 -8.8 16.1 70 -13.4 7.9
08:40 1021 30.15 850 25.1 -8.8 16.3 69 -13.4 7.9
08:45 1021 30.15 850 25.1 -9 15.7 71 -13.5 7.8
08:50 1021 30.15 850 25.1 -9 15.7 72 -13.2 8.2
08:55 1021 30.15 850 25.1 -9.6 14.8 74 -13.4 7.8
09:00 1021 30.15 850 25.1 -9.5 14.9 72 -13.6 7.5
09:05 1021 30.15 850 25.1 -9.5 14.9 73 -13.5 7.7
09:10 1021 30.15 850 25.1 -9.5 14.8 72 -13.7 7.4
09:15 1021 30.15 851 25.13 -9.4 15.1 70 -13.9 7.1
09:20 1021 30.15 851 25.13 -9.3 15.2 70 -13.8 7.2
09:25 1021 30.15 851 25.13 -9.1 15.6 69 -13.8 7.1
09:30 1021 30.15 851 25.13 -8.8 16.1 67 -13.9 7.1
09:35 1021 30.15 851 25.13 -8.8 16.2 67 -13.9 7.1
09:40 1022 30.18 851 25.13 -8.9 15.9 69 -13.7 7.3
09:45 1022 30.18 851 25.13 -9.3 15.3 70 -13.8 7.2
09:50 1022 30.18 851 25.13 -9.5 15 70 -14 6.8
09:55 1022 30.18 851 25.13 -9.5 14.9 72 -13.6 7.5
10:00 1022 30.18 851 25.13 -9.5 15 72 -13.7 7.4
10:05 1022 30.18 851 25.13 -9.2 15.5 70 -13.7 7.4
10:10 1022 30.18 851 25.13 -9.1 15.7 70 -13.6 7.5
10:15 1022 30.18 851 25.13 -9 15.9 69 -13.6 7.5
10:20 1022 30.18 851 25.13 -9.2 15.5 69 -13.9 7
10:25 1022 30.18 851 25.13 -9.1 15.5 69 -13.9 7
10:30 1022 30.18 851 25.13 -9 15.7 70 -13.6 7.5
10:35 1022 30.18 851 25.13 -8.9 16.1 68 -13.8 7.2
10:40 1022 30.18 851 25.13 -8.6 16.5 68 -13.5 7.7
10:45 1022 30.18 851 25.13 -8.7 16.3 69 -13.4 7.8
10:50 1022 30.18 851 25.13 -8.9 15.9 70 -13.5 7.7
10:55 1022 30.18 851 25.13 -9.2 15.5 72 -13.4 7.9
11:00 1022 30.18 851 25.13 -9.3 15.3 71 -13.6 7.6
11:05 1022 30.18 851 25.13 -9.5 14.9 72 -13.6 7.5
11:10 1022 30.18 851 25.13 -9.5 15 74 -13.4 7.9
11:15 1022 30.18 851 25.13 -9.4 15.1 73 -13.4 7.8
11:20 1022 30.18 851 25.13 -9.2 15.4 71 -13.6 7.5
11:25 1022 30.18 851 25.13 -9.4 15.2 73 -13.3 8
11:30 1022 30.18 851 25.13 -9.2 15.5 71 -13.5 7.7
11:35 1022 30.18 851 25.13 -8.7 16.3 69 -13.5 7.7
11:40 1022 30.18 851 25.13 -8.2 17.2 67 -13.4 8
11:45 1022 30.18 852 25.16 -7.9 17.8 65 -13.3 8.1
11:50 1022 30.18 852 25.16 -7.9 17.7 64 -13.6 7.5
11:55 1022 30.18 852 25.16 -8.4 16.8 68 -13.2 8.2
12:00 1022 30.18 852 25.16 -8.6 16.4 68 -13.5 7.7
12:05 1022 30.18 852 25.16 -8.8 16.2 67 -13.8 7.2
12:10 1022 30.18 852 25.16 -8.9 16 68 -13.7 7.3
12:15 1022 30.18 852 25.16 -8.2 17.3 64 -13.8 7.2
12:20 1022 30.18 852 25.16 -8.6 16.6 67 -13.6 7.6
12:25 1022 30.18 852 25.16 -8.9 15.9 69 -13.7 7.4
12:30 1023 30.21 852 25.16 -9 15.9 67 -13.9 6.9
12:35 1023 30.21 852 25.16 -8.7 16.3 68 -13.6 7.5
12:40 1023 30.21 852 25.16 -8.7 16.3 67 -13.7 7.3
12:45 1023 30.21 852 25.16 -9.2 15.4 70 -13.8 7.2
12:50 1023 30.21 852 25.16 -9.6 14.8 71 -14 6.9
12:55 1023 30.21 852 25.16 -9.3 15.2 70 -13.9 7
13:00 1023 30.21 852 25.16 -9.3 15.4 71 -13.6 7.5
13:05 1023 30.21 852 25.16 -9.1 15.5 70 -13.7 7.3
13:10 1023 30.21 852 25.16 -8.7 16.4 67 -13.8 7.2
13:15 1023 30.21 852 25.16 -7.5 18.5 63 -13.5 7.8
13:20 1023 30.21 852 25.16 -7.3 18.8 62 -13.4 7.9
13:25 1023 30.21 852 25.16 -8.2 17.2 64 -13.8 7.1
13:30 1023 30.21 852 25.16 -8.7 16.3 67 -13.8 7.2
13:35 1023 30.21 852 25.16 -9.3 15.3 69 -13.9 6.9
13:40 1023 30.21 852 25.16 -9.6 14.8 69 -14.2 6.5
13:45 1023 30.21 852 25.16 -9.3 15.3 67 -14.3 6.3
13:50 1023 30.21 852 25.16 -9.3 15.4 69 -14 6.8
13:55 1023 30.21 852 25.16 -8.6 16.5 64 -14.2 6.4
14:00 1023 30.21 852 25.16 -8.6 16.6 64 -14.1 6.5
14:05 1023 30.21 852 25.16 -9 15.8 67 -14.1 6.6
14:10 1023 30.21 852 25.16 -8.6 16.6 65 -14 6.7
14:15 1023 30.21 852 25.16 -8.7 16.4 66 -14 6.8
14:20 1023 30.21 852 25.16 -8.7 16.4 65 -14 6.8
14:25 1023 30.21 852 25.16 -8.4 16.8 64 -14.2 6.5
14:30 1023 30.21 852 25.16 -8.7 16.4 66 -13.9 6.9
14:35 1023 30.21 852 25.16 -8.7 16.4 66 -14 6.8
14:40 1023 30.21 852 25.16 -8.7 16.4 64 -14.3 6.3
14:45 1023 30.21 852 25.16 -8.1 17.4 62 -14.1 6.6
14:50 1023 30.21 852 25.16 -7.6 18.3 61 -13.9 7
14:55 1023 30.21 852 25.16 -7.5 18.5 62 -13.6 7.5
15:00 1023 30.21 852 25.16 -7.5 18.4 63 -13.4 7.8
15:05 1023 30.21 852 25.16 -8.1 17.4 66 -13.3 8
15:10 1023 30.21 852 25.16 -8.1 17.5 65 -13.5 7.7
15:15 1023 30.21 852 25.16 -8.2 17.3 66 -13.5 7.8
15:20 1023 30.21 852 25.16 -8.6 16.6 67 -13.7 7.3
15:25 1023 30.21 853 25.19 -8.8 16.1 68 -13.8 7.2
15:30 1023 30.21 853 25.19 -9 15.9 67 -14.1 6.7
15:35 1023 30.21 853 25.19 -9.2 15.5 71 -13.6 7.6
15:40 1023 30.21 853 25.19 -9.5 14.8 72 -13.7 7.3
15:45 1023 30.21 853 25.19 -9.4 15.1 71 -13.8 7.1
15:50 1023 30.21 853 25.19 -9.5 14.9 70 -13.9 6.9
15:55 1023 30.21 853 25.19 -10 14 72 -14.1 6.7
16:00 1024 30.24 853 25.19 -10.2 13.6 74 -14.1 6.6
16:05 1024 30.24 853 25.19 -10.3 13.4 75 -14 6.8
16:10 1024 30.24 853 25.19 -10.3 13.4 75 -14 6.8
16:15 1024 30.24 853 25.19 -10.5 13.2 75 -14 6.7
16:20 1024 30.24 853 25.19 -10.7 12.8 76 -14.1 6.6
16:25 1024 30.24 853 25.19 -10.8 12.5 77 -14.1 6.6
16:30 1024 30.24 853 25.19 -10.9 12.5 77 -14.2 6.5
16:35 1024 30.24 853 25.19 -11 12.2 77 -14.3 6.3
16:40 1024 30.24 853 25.19 -11.4 11.4 79 -14.4 6
16:45 1024 30.24 853 25.19 -11.7 11 80 -14.4 6
16:50 1024 30.24 853 25.19 -11.8 10.8 80 -14.5 5.9
16:55 1024 30.24 853 25.19 -12.2 10 83 -14.6 5.7
17:00 1024 30.24 853 25.19 -12.2 10 82 -14.7 5.6
17:05 1024 30.24 853 25.19 -12.2 10 83 -14.6 5.8
17:10 1024 30.24 853 25.19 -12.3 9.8 83 -14.6 5.7
17:15 1024 30.24 853 25.19 -12.4 9.7 83 -14.7 5.5
17:20 1024 30.24 853 25.19 -12.3 9.9 82 -14.7 5.5
17:25 1024 30.24 853 25.19 -12.2 10.1 81 -14.8 5.4
17:30 1024 30.24 853 25.19 -12.2 10 82 -14.8 5.4
17:35 1024 30.24 853 25.19 -12.3 9.9 81 -14.9 5.2
17:40 1024 30.24 853 25.19 -12.5 9.5 81 -15 4.9
17:45 1024 30.24 853 25.19 -12.6 9.3 81 -15.2 4.6
17:50 1024 30.24 853 25.19 -12.7 9.2 81 -15.3 4.5
17:55 1024 30.24 854 25.22 -12.9 8.7 80 -15.7 3.8
18:00 1024 30.24 854 25.22 -13.5 7.6 83 -15.8 3.6
18:05 1024 30.24 854 25.22 -13.8 7.2 83 -16.1 3
18:10 1024 30.24 854 25.22 -13.9 6.9 82 -16.4 2.5
18:15 1025 30.27 854 25.22 -14.5 5.9 82 -16.9 1.5
18:20 1025 30.27 854 25.22 -14.7 5.5 85 -16.7 2
18:25 1025 30.27 854 25.22 -14.2 6.5 85 -16.1 3
18:30 1025 30.27 854 25.22 -13.8 7.1 83 -16.1 3.1
18:35 1025 30.27 854 25.22 -13.7 7.3 83 -16.1 3.1
18:40 1025 30.27 854 25.22 -13.7 7.4 82 -16.1 3
18:45 1025 30.27 854 25.22 -13.6 7.6 82 -16 3.2
18:50 1025 30.27 854 25.22 -13.5 7.8 81 -16 3.2
18:55 1025 30.27 854 25.22 -13.5 7.7 81 -16.1 3
19:00 1025 30.27 854 25.22 -13.5 7.7 80 -16.2 2.8
19:05 1025 30.27 854 25.22 -13.6 7.5 79 -16.6 2.2
19:10 1025 30.27 854 25.22 -14.1 6.7 79 -16.9 1.6
19:15 1025 30.27 854 25.22 -14.8 5.4 80 -17.6 0.4
19:20 1025 30.27 854 25.22 -15.3 4.6 84 -17.4 0.7
19:25 1025 30.27 854 25.22 -14.8 5.4 87 -16.5 2.4
19:30 1025 30.27 854 25.22 -14.3 6.2 85 -16.3 2.6
19:35 1025 30.27 854 25.22 -14.3 6.3 85 -16.2 2.8
19:40 1025 30.27 854 25.22 -14.3 6.2 84 -16.5 2.3
19:45 1025 30.27 854 25.22 -14.8 5.3 86 -16.6 2
19:50 1025 30.27 854 25.22 -14.8 5.4 87 -16.5 2.3
19:55 1025 30.27 854 25.22 -14.4 6 86 -16.3 2.6
20:00 1025 30.27 854 25.22 -14.5 5.9 85 -16.5 2.4
20:05 1025 30.27 854 25.22 -15.1 4.7 86 -17.1 1.3
20:10 1025 30.27 855 25.25 -15.4 4.3 87 -17.1 1.2
20:15 1025 30.27 855 25.25 -15.2 4.6 85 -17.1 1.2
20:20 1025 30.27 855 25.25 -14.9 5.2 86 -16.7 1.9
20:25 1025 30.27 854 25.22 -14.4 6.2 86 -16.2 2.8
20:30 1025 30.27 855 25.25 -14.3 6.2 83 -16.6 2.2
20:35 1025 30.27 855 25.25 -14.6 5.8 84 -16.7 1.9
20:40 1025 30.27 855 25.25 -14.7 5.5 85 -16.7 1.9
20:45 1026 30.3 855 25.25 -14.7 5.5 83 -16.9 1.5
20:50 1026 30.3 855 25.25 -14.8 5.5 84 -16.9 1.7
20:55 1026 30.3 855 25.25 -14.8 5.4 81 -17.4 0.7
21:00 1026 30.3 855 25.25 -15.5 4.2 82 -17.8 -0.1
21:05 1026 30.3 855 25.25 -15.6 4 82 -17.9 -0.3
21:10 1026 30.3 855 25.25 -15.5 4.1 85 -17.4 0.6
21:15 1026 30.3 855 25.25 -15.5 4.2 87 -17.2 1
21:20 1026 30.3 855 25.25 -15.3 4.5 86 -17.1 1.2
21:25 1026 30.3 855 25.25 -15.1 4.7 88 -16.7 2
21:30 1026 30.3 855 25.25 -15.2 4.7 88 -16.8 1.8
21:35 1026 30.3 855 25.25 -15.1 4.8 87 -16.8 1.7
21:40 1026 30.3 855 25.25 -15.2 4.7 87 -16.9 1.6
21:45 1026 30.3 855 25.25 -15.4 4.3 85 -17.4 0.6
21:50 1026 30.3 855 25.25 -15.8 3.6 86 -17.6 0.3
21:55 1026 30.3 855 25.25 -15.6 4 89 -17 1.3
22:00 1026 30.3 855 25.25 -15.1 4.7 89 -16.6 2.1
22:05 1026 30.3 855 25.25 -14.9 5.1 89 -16.4 2.5
22:10 1026 30.3 855 25.25 -14.7 5.6 89 -16.1 3
22:15 1026 30.3 855 25.25 -14.3 6.4 88 -15.8 3.5
22:20 1026 30.3 856 25.28 -14.3 6.3 87 -16 3.1
22:25 1026 30.3 856 25.28 -14.5 5.9 87 -16.3 2.7
22:30 1026 30.3 856 25.28 -14.4 6.2 88 -15.9 3.4
22:35 1027 30.33 856 25.28 -14.4 6 87 -16.1 3
22:40 1027 30.33 856 25.28 -14.8 5.4 86 -16.6 2.1
22:45 1027 30.33 856 25.28 -15.2 4.6 87 -16.9 1.5
22:50 1027 30.33 856 25.28 -15.1 4.9 87 -16.8 1.7
22:55 1027 30.33 856 25.28 -15.1 4.8 87 -16.8 1.7
23:00 1027 30.33 856 25.28 -15.2 4.7 86 -17 1.5
23:05 1027 30.33 856 25.28 -15.3 4.4 85 -17.3 0.8
23:10 1026 30.3 856 25.28 -15.5 4.1 85 -17.5 0.6
23:15 1027 30.33 856 25.28 -15.5 4.1 85 -17.5 0.5
23:20 1027 30.33 856 25.28 -15.3 4.5 85 -17.3 0.8
23:25 1026 30.3 856 25.28 -15.1 4.9 85 -17.1 1.2
23:30 1026 30.3 856 25.28 -14.9 5.1 85 -16.9 1.5
23:35 1026 30.3 856 25.28 -14.8 5.3 87 -16.6 2.1
23:40 1026 30.3 856 25.28 -14.4 6.1 86 -16.2 2.9
23:45 1027 30.33 856 25.28 -14.1 6.5 86 -16 3.2
23:50 1027 30.33 856 25.28 -14.2 6.4 85 -16.2 2.8
23:55 1027 30.33 856 25.28 -14.5 6 84 -16.6 2.1
24:00 1026 30.3 856 25.28 -14.8 5.4 84 -16.9 1.6